La Grande Rivière Airport
CYGL : rendu visible

Aérodrome :











RETROUVEZ-NOUS SUR...

 
LOGIN :

S'inscrire | Disclaimer

   EN    FR    IT 

 









Légende :    VFR   VFR Marginal   IFR   IFR Intensif   IFR Très Intensif
Visi : 
Plafond : 
>= 8 km
>= 3000ft
5 à 8 km
1000 à 3000 ft
1500m à 5 km
500 à 1000 ft
800 à 1500m
200 à 500 ft
< 800m
< 200 ft
Symboles :   Orages  Brouillard  Fortes neiges  Fortes précipitations  Vent > 20 kt






- Altitude de l'aérodrome : 639 ft
- Code IATA : YGL


CYGL - La Grande Rivière

DERNIER METAR :
  • 261700Z VRB02KT 15SM BKN240 11/M00 A3017 RMK CI6 SLP229

METARs EXPIRÉS :
  • 261600Z 26006KT 180V290 15SM BKN240 09/M01 A3018 RMK CI7 SLP230
  • 261500Z 23005KT 15SM FEW020 BKN240 06/M01 A3018 RMK SC1CI7 SC TR SLP230

TAF AMD TAF CYGL
Valide du 26 à 12h jusqu'au 27 à 12h UTC


261205Z 2612/2712 36005KT 2SM BR BKN004 OVC240
BECMG 2612/2614 VRB03KT P6SM NSW SCT240
FM270000 VRB03KT P6SM FEW120 BKN180
FM270300 11008KT P6SM FEW080 OVC120
FM271000 10012KT 3SM -RA BR BKN015 OVC030 RMK NXT FCST BY 261800Z
FIR CZUL / Amérique du Nord



MET'MAP, la Météo Aéronautique d'un coup d'oeil ! - Copyright ORBIFLY Décembre 2007 - Disclaimer

ORBIFLY MET'MAP TEAM :

Programmation & Développement : Alexandra Zaïnal
Sur une idée originale de : Baudouin d'Aumeries
Assistance à la programmation : Marc-Olivier Méhu
Soutien technique & logistique : Manuel Goepfert

Contact : metmap@orbifly.com




SOURCES & CREDITS :

   NOAA       Earth
Advisory